Time;durP1;ratioP1;P1;durP2;ratioP2;P2;SDS_P1;SDS_P2;PMS_P1;PMS_P2;Temp;Humidity;BMP_temperature;BMP_pressure;BME280_temperature;BME280_humidity;BME280_pressure;Samples;Min_cycle;Max_cycle;Signal;HPM_P1;HPM_P2
2021/03/20 00:00:37;;;;;;;12.52;5.35;;;;;;;-142.13;100.00;58370.81;4986777;28;20529;-74
2021/03/20 00:03:06;;;;;;;12.00;6.13;;;;;;;-142.13;100.00;58370.81;4982671;28;20735;-73
2021/03/20 00:05:33;;;;;;;13.57;6.53;;;;;;;-142.13;100.00;58370.81;4982453;28;20225;-73
2021/03/20 00:08:01;;;;;;;9.35;5.47;;;;;;;-142.13;100.00;58370.81;4984062;28;20543;-74
2021/03/20 00:10:28;;;;;;;10.13;5.50;;;;;;;-142.13;100.00;58370.81;4986060;28;20208;-72
2021/03/20 00:12:56;;;;;;;14.30;6.22;;;;;;;-142.13;100.00;58370.81;4980327;28;20217;-73
2021/03/20 00:15:25;;;;;;;10.98;5.78;;;;;;;-142.13;100.00;58370.81;4981720;28;20540;-70
2021/03/20 00:17:54;;;;;;;13.00;6.00;;;;;;;-142.13;100.00;58370.81;4989894;28;20547;-73
2021/03/20 00:20:25;;;;;;;13.50;6.38;;;;;;;-142.13;100.00;58370.81;4983256;28;20274;-70
2021/03/20 00:22:52;;;;;;;11.93;5.20;;;;;;;-142.13;100.00;58370.81;4990367;28;20661;-71
2021/03/20 00:25:19;;;;;;;18.90;7.95;;;;;;;-142.13;100.00;58370.81;4990942;28;21245;-73
2021/03/20 00:27:46;;;;;;;15.10;6.82;;;;;;;-142.13;100.00;58370.81;4985635;28;20604;-73
2021/03/20 00:30:15;;;;;;;12.68;5.70;;;;;;;-142.13;100.00;58370.81;4980324;28;20248;-71
2021/03/20 00:32:43;;;;;;;11.13;5.60;;;;;;;-142.13;100.00;58370.81;4985924;28;20573;-73
2021/03/20 00:35:13;;;;;;;11.93;6.35;;;;;;;-142.13;100.00;58370.81;4983084;28;20229;-72
2021/03/20 00:37:41;;;;;;;11.55;6.03;;;;;;;-142.13;100.00;58370.81;4981244;28;20587;-73
2021/03/20 00:40:12;;;;;;;11.25;5.65;;;;;;;-142.13;100.00;58370.81;4982551;28;20657;-74
2021/03/20 00:42:39;;;;;;;12.43;5.88;;;;;;;-142.13;100.00;58370.81;4970375;28;20570;-71
2021/03/20 00:45:08;;;;;;;10.82;4.97;;;;;;;-142.13;100.00;58370.81;4991815;28;20225;-72
2021/03/20 00:47:35;;;;;;;9.90;5.13;;;;;;;-142.13;100.00;58370.81;4987606;28;20268;-70
2021/03/20 00:50:05;;;;;;;8.45;5.00;;;;;;;-142.13;100.00;58370.81;4978129;28;20617;-70
2021/03/20 00:52:32;;;;;;;10.30;5.40;;;;;;;-142.13;100.00;58370.81;4985778;28;20238;-70
2021/03/20 00:55:00;;;;;;;12.07;5.50;;;;;;;-142.13;100.00;58370.81;4991220;28;20205;-70
2021/03/20 00:57:27;;;;;;;12.02;6.05;;;;;;;-142.13;100.00;58370.81;4990024;28;20233;-70
2021/03/20 00:59:54;;;;;;;10.75;5.07;;;;;;;-142.13;100.00;58370.81;4986635;28;20178;-70
2021/03/20 01:02:21;;;;;;;9.52;5.25;;;;;;;-142.13;100.00;58370.81;4980439;28;20754;-71
2021/03/20 01:04:49;;;;;;;9.52;5.20;;;;;;;-142.13;100.00;58370.81;4990288;28;20546;-71
2021/03/20 01:07:16;;;;;;;10.23;5.20;;;;;;;-142.13;100.00;58370.81;4987618;28;20225;-70
2021/03/20 01:09:43;;;;;;;11.32;5.63;;;;;;;-142.13;100.00;58370.81;4962331;28;20201;-71
2021/03/20 01:12:11;;;;;;;11.85;5.18;;;;;;;-142.13;100.00;58370.81;4978973;28;20543;-70
2021/03/20 01:14:38;;;;;;;11.98;6.25;;;;;;;-142.13;100.00;58370.81;4990280;28;20675;-70
2021/03/20 01:17:05;;;;;;;6.43;3.70;;;;;;;-142.13;100.00;58370.81;4986459;28;20704;-70
2021/03/20 01:19:32;;;;;;;7.13;4.35;;;;;;;-142.13;100.00;58370.81;4991885;28;20190;-70
2021/03/20 01:21:59;;;;;;;9.40;4.25;;;;;;;-142.13;100.00;58370.81;4994899;28;20641;-70
2021/03/20 01:24:27;;;;;;;13.05;5.03;;;;;;;-142.13;100.00;58370.81;4990469;28;20690;-71
2021/03/20 01:26:54;;;;;;;9.73;4.68;;;;;;;-142.13;100.00;58370.81;4963731;28;20732;-70
2021/03/20 01:29:22;;;;;;;10.73;5.28;;;;;;;-142.13;100.00;58370.81;4988310;28;20564;-71
2021/03/20 01:31:51;;;;;;;12.05;4.60;;;;;;;-142.13;100.00;58370.81;4990357;28;20190;-70
2021/03/20 01:34:18;;;;;;;8.13;4.75;;;;;;;-142.13;100.00;58370.81;4984653;28;20707;-71
2021/03/20 01:36:45;;;;;;;12.95;4.65;;;;;;;-142.13;100.00;58370.81;4984410;28;20463;-71
2021/03/20 01:39:12;;;;;;;9.50;5.53;;;;;;;-142.13;100.00;58370.81;4987812;28;20186;-70
2021/03/20 01:41:41;;;;;;;9.68;5.28;;;;;;;-142.13;100.00;58370.81;4987222;28;20591;-70
2021/03/20 01:44:14;;;;;;;9.85;4.68;;;;;;;-142.13;100.00;58370.81;4972733;28;20559;-69
2021/03/20 01:46:46;;;;;;;12.20;5.32;;;;;;;-142.13;100.00;58370.81;4983482;28;20575;-70
2021/03/20 01:49:22;;;;;;;12.13;5.72;;;;;;;-142.13;100.00;58370.81;4971342;28;20612;-70
2021/03/20 01:51:56;;;;;;;7.28;4.10;;;;;;;-142.13;100.00;58370.81;4983848;28;20640;-71
2021/03/20 01:54:24;;;;;;;6.35;3.72;;;;;;;-142.13;100.00;58370.81;4983690;28;20630;-71
2021/03/20 01:56:51;;;;;;;9.18;4.35;;;;;;;-142.13;100.00;58370.81;4992826;28;20190;-70
2021/03/20 01:59:19;;;;;;;8.07;4.10;;;;;;;-142.13;100.00;58370.81;4995289;28;20189;-71
2021/03/20 02:01:48;;;;;;;10.07;4.30;;;;;;;-142.13;100.00;58370.81;4983239;28;20540;-71
2021/03/20 02:04:15;;;;;;;8.45;4.95;;;;;;;-142.13;100.00;58370.81;4981232;28;20198;-70
2021/03/20 02:06:43;;;;;;;7.55;4.03;;;;;;;-142.13;100.00;58370.81;4987558;28;20837;-70
2021/03/20 02:09:11;;;;;;;8.23;4.22;;;;;;;-142.13;100.00;58370.81;4981501;28;20198;-70
2021/03/20 02:11:44;;;;;;;8.82;4.85;;;;;;;-142.13;100.00;58370.81;4989979;28;20794;-69
2021/03/20 02:14:21;;;;;;;8.80;5.00;;;;;;;-142.13;100.00;58370.81;4985566;28;20634;-69
2021/03/20 02:16:57;;;;;;;9.65;5.05;;;;;;;-142.13;100.00;58370.81;4968142;28;20406;-69
2021/03/20 02:19:44;;;;;;;8.80;4.05;;;;;;;-142.13;100.00;58370.81;4990848;28;20212;-69
2021/03/20 02:22:16;;;;;;;8.60;4.65;;;;;;;-142.13;100.00;58370.81;4983489;28;20875;-69
2021/03/20 02:25:24;;;;;;;9.13;4.30;;;;;;;-142.13;100.00;58370.81;4975085;28;20284;-69
2021/03/20 02:28:31;;;;;;;7.63;4.30;;;;;;;-142.13;100.00;58370.81;4972346;28;20275;-68
2021/03/20 02:31:39;;;;;;;6.38;3.55;;;;;;;-142.13;100.00;58370.81;4994268;28;20575;-69
2021/03/20 02:34:16;;;;;;;9.40;4.03;;;;;;;-142.13;100.00;58370.81;4986712;28;20217;-70
2021/03/20 02:36:55;;;;;;;8.68;4.18;;;;;;;-142.13;100.00;58370.81;4983380;28;20197;-70
2021/03/20 02:39:29;;;;;;;6.22;3.67;;;;;;;-142.13;100.00;58370.81;4983085;28;20256;-71
2021/03/20 02:42:00;;;;;;;6.22;3.90;;;;;;;-142.13;100.00;58370.81;4990218;28;20222;-70
2021/03/20 02:44:33;;;;;;;9.27;4.35;;;;;;;-142.13;100.00;58370.81;4991167;28;20576;-71
2021/03/20 02:47:03;;;;;;;5.43;3.40;;;;;;;-142.13;100.00;58370.81;4984748;28;20677;-71
2021/03/20 02:49:40;;;;;;;7.32;4.07;;;;;;;-142.13;100.00;58370.81;4993191;28;20677;-71
2021/03/20 02:52:12;;;;;;;12.55;4.10;;;;;;;-142.13;100.00;58370.81;4985360;28;20640;-70
2021/03/20 02:54:46;;;;;;;7.85;3.55;;;;;;;-142.13;100.00;58370.81;4987262;28;20591;-71
2021/03/20 02:57:17;;;;;;;10.32;4.10;;;;;;;-142.13;100.00;58370.81;4989674;28;20295;-71
2021/03/20 02:59:51;;;;;;;7.07;3.85;;;;;;;-142.13;100.00;58370.81;4982907;28;20537;-71
2021/03/20 03:02:21;;;;;;;9.07;4.22;;;;;;;-142.13;100.00;58370.81;4981873;28;20723;-70
2021/03/20 03:04:54;;;;;;;10.18;4.28;;;;;;;-142.13;100.00;58370.81;4985207;28;20241;-71
2021/03/20 03:07:31;;;;;;;8.18;3.70;;;;;;;-142.13;100.00;58370.81;4983454;28;20221;-72
2021/03/20 03:10:03;;;;;;;10.52;4.35;;;;;;;-142.13;100.00;58370.81;4992034;28;20201;-70
2021/03/20 03:12:35;;;;;;;9.50;4.93;;;;;;;-142.13;100.00;58370.81;4977500;28;20268;-70
2021/03/20 03:15:08;;;;;;;11.52;3.70;;;;;;;-142.13;100.00;58370.81;4984861;28;20756;-70
2021/03/20 03:17:41;;;;;;;5.75;3.58;;;;;;;-142.13;100.00;58370.81;4990796;28;20237;-71
2021/03/20 03:20:14;;;;;;;8.70;3.42;;;;;;;-142.13;100.00;58370.81;4981569;28;20301;-71
2021/03/20 03:22:54;;;;;;;7.10;3.42;;;;;;;-142.13;100.00;58370.81;4988826;28;20268;-69
2021/03/20 03:25:24;;;;;;;8.52;4.85;;;;;;;-142.13;100.00;58370.81;4974720;28;20193;-70
2021/03/20 03:27:53;;;;;;;6.20;3.90;;;;;;;-142.13;100.00;58370.81;4989213;28;20213;-71
2021/03/20 03:30:23;;;;;;;4.85;2.90;;;;;;;-142.13;100.00;58370.81;4981079;28;20189;-70
2021/03/20 03:32:53;;;;;;;6.28;4.03;;;;;;;-142.13;100.00;58370.81;4988886;28;20213;-71
2021/03/20 03:35:27;;;;;;;9.13;4.45;;;;;;;-142.13;100.00;58370.81;4984955;28;20557;-70
2021/03/20 03:38:01;;;;;;;6.60;3.42;;;;;;;-142.13;100.00;58370.81;4989618;28;20225;-70
2021/03/20 03:40:33;;;;;;;5.05;3.50;;;;;;;-142.13;100.00;58370.81;4991592;28;20605;-70
2021/03/20 03:43:00;;;;;;;6.03;3.80;;;;;;;-142.13;100.00;58370.81;4987983;28;20226;-70
2021/03/20 03:45:27;;;;;;;5.10;3.58;;;;;;;-142.13;100.00;58370.81;4982153;28;20749;-70
2021/03/20 03:47:54;;;;;;;6.85;4.50;;;;;;;-142.13;100.00;58370.81;4985760;28;20229;-72
2021/03/20 03:50:26;;;;;;;8.70;4.35;;;;;;;-142.13;100.00;58370.81;4992204;28;20634;-71
2021/03/20 03:52:53;;;;;;;6.78;3.83;;;;;;;-142.13;100.00;58370.81;4985551;28;20309;-70
2021/03/20 03:55:22;;;;;;;6.38;3.45;;;;;;;-142.13;100.00;58370.81;4982000;28;20225;-70
2021/03/20 03:58:12;;;;;;;7.45;4.40;;;;;;;-142.13;100.00;58370.81;4985220;28;20278;-71
2021/03/20 04:00:44;;;;;;;6.15;3.80;;;;;;;-142.13;100.00;58370.81;4980430;28;20537;-71
2021/03/20 04:03:48;;;;;;;4.20;3.30;;;;;;;-142.13;100.00;58370.81;4980709;28;20260;-71
2021/03/20 04:06:59;;;;;;;7.35;3.83;;;;;;;-142.13;100.00;58370.81;4981432;28;20280;-71
2021/03/20 04:09:41;;;;;;;6.63;4.03;;;;;;;-142.13;100.00;58370.81;4961043;28;20712;-70
2021/03/20 04:12:14;;;;;;;6.95;4.50;;;;;;;-142.13;100.00;58370.81;4980806;28;20734;-70
2021/03/20 04:14:51;;;;;;;9.40;4.45;;;;;;;-142.13;100.00;58370.81;4982227;28;20185;-71
2021/03/20 04:17:25;;;;;;;6.75;4.18;;;;;;;-142.13;100.00;58370.81;4989633;28;20757;-71
2021/03/20 04:20:03;;;;;;;8.20;3.95;;;;;;;-142.13;100.00;58370.81;4985044;28;20546;-72
2021/03/20 04:22:38;;;;;;;6.47;4.18;;;;;;;-142.13;100.00;58370.81;4981555;28;20700;-70
2021/03/20 04:25:47;;;;;;;10.82;5.30;;;;;;;-142.13;100.00;58370.81;5003228;28;20309;-70
2021/03/20 04:28:25;;;;;;;10.57;4.50;;;;;;;-142.13;100.00;58370.81;4983544;28;20233;-70
2021/03/20 04:31:04;;;;;;;6.82;4.82;;;;;;;-142.13;100.00;58370.81;4984111;28;20630;-71
2021/03/20 04:33:38;;;;;;;8.55;5.60;;;;;;;-142.13;100.00;58370.81;4988959;28;20746;-69
2021/03/20 04:36:09;;;;;;;6.25;4.30;;;;;;;-142.13;100.00;58370.81;4982706;28;20689;-70
2021/03/20 04:38:38;;;;;;;10.80;5.85;;;;;;;-142.13;100.00;58370.81;4985065;28;20299;-69
2021/03/20 04:41:08;;;;;;;8.48;4.68;;;;;;;-142.13;100.00;58370.81;4984541;28;20637;-70
2021/03/20 04:43:37;;;;;;;9.27;4.70;;;;;;;-142.13;100.00;58370.81;4976877;28;20833;-70
2021/03/20 04:46:15;;;;;;;8.40;5.72;;;;;;;-142.13;100.00;58370.81;4988657;28;20186;-70
2021/03/20 04:48:45;;;;;;;8.93;5.07;;;;;;;-142.13;100.00;58370.81;4986190;28;20267;-70
2021/03/20 04:51:31;;;;;;;10.57;5.13;;;;;;;-142.13;100.00;58370.81;4983349;28;20186;-70
2021/03/20 04:54:05;;;;;;;8.43;4.82;;;;;;;-142.13;100.00;58370.81;4989221;28;20213;-71
2021/03/20 04:56:38;;;;;;;7.72;4.95;;;;;;;-142.13;100.00;58370.81;4993958;28;20192;-70
2021/03/20 04:59:20;;;;;;;9.82;5.35;;;;;;;-142.13;100.00;58370.81;4983986;28;20591;-69
2021/03/20 05:01:50;;;;;;;8.70;4.85;;;;;;;-142.13;100.00;58370.81;4990933;28;20525;-70
2021/03/20 05:04:23;;;;;;;12.18;5.47;;;;;;;-142.13;100.00;58370.81;4986351;28;20712;-71
2021/03/20 05:06:51;;;;;;;7.85;4.70;;;;;;;-142.13;100.00;58370.81;4988966;28;20213;-70
2021/03/20 05:09:22;;;;;;;12.05;5.50;;;;;;;-142.13;100.00;58370.81;4986662;28;20194;-70
2021/03/20 05:11:56;;;;;;;10.00;4.65;;;;;;;-142.13;100.00;58370.81;4981867;28;20250;-69
2021/03/20 05:14:31;;;;;;;10.00;5.32;;;;;;;-142.13;100.00;58370.81;4985124;28;20555;-70
2021/03/20 05:17:01;;;;;;;9.77;5.20;;;;;;;-142.13;100.00;58370.81;4970620;28;20481;-70
2021/03/20 05:19:29;;;;;;;7.35;4.60;;;;;;;-142.13;100.00;58370.81;4985757;28;20205;-71
2021/03/20 05:21:58;;;;;;;7.80;4.80;;;;;;;-142.13;100.00;58370.81;4983195;28;20276;-70
2021/03/20 05:24:28;;;;;;;6.50;4.60;;;;;;;-142.13;100.00;58370.81;4984044;28;20201;-72
2021/03/20 05:26:56;;;;;;;8.52;4.60;;;;;;;-142.13;100.00;58370.81;4993986;28;20525;-71
2021/03/20 05:29:24;;;;;;;6.55;4.40;;;;;;;-142.13;100.00;58370.81;4984420;28;20634;-71
2021/03/20 05:31:51;;;;;;;7.43;4.82;;;;;;;-142.13;100.00;58370.81;4991366;28;20494;-71
2021/03/20 05:34:23;;;;;;;8.98;4.80;;;;;;;-142.13;100.00;58370.81;4984824;28;20226;-71
2021/03/20 05:36:51;;;;;;;6.95;4.40;;;;;;;-142.13;100.00;58370.81;4988480;28;20530;-71
2021/03/20 05:39:18;;;;;;;6.57;3.92;;;;;;;-142.13;100.00;58370.81;4994080;28;20185;-72
2021/03/20 05:41:58;;;;;;;11.85;4.53;;;;;;;-142.13;100.00;58370.81;4993187;28;20644;-71
2021/03/20 05:44:42;;;;;;;9.52;4.97;;;;;;;-142.13;100.00;58370.81;4994834;28;20286;-72
2021/03/20 05:47:24;;;;;;;8.93;4.35;;;;;;;-142.13;100.00;58370.81;4992329;28;20221;-71
2021/03/20 05:50:07;;;;;;;7.05;4.15;;;;;;;-142.13;100.00;58370.81;4992260;28;20621;-71
2021/03/20 05:52:47;;;;;;;9.30;4.93;;;;;;;-142.13;100.00;58370.81;4984224;28;20220;-72
2021/03/20 05:55:32;;;;;;;10.43;4.80;;;;;;;-142.13;100.00;58370.81;4986174;28;20189;-70
2021/03/20 05:58:11;;;;;;;5.60;4.10;;;;;;;-142.13;100.00;58370.81;4988064;28;20239;-72
2021/03/20 06:00:47;;;;;;;8.02;4.50;;;;;;;-142.13;100.00;58370.81;4992268;28;20633;-72
2021/03/20 06:03:55;;;;;;;8.35;3.67;;;;;;;-142.13;100.00;58370.81;4982286;28;20622;-72
2021/03/20 06:06:42;;;;;;;7.90;4.97;;;;;;;-142.13;100.00;58370.81;4909994;28;20707;-72
2021/03/20 06:09:20;;;;;;;6.60;4.10;;;;;;;-142.13;100.00;58370.81;4963173;28;20672;-72
2021/03/20 06:12:06;;;;;;;7.03;4.15;;;;;;;-142.13;100.00;58370.81;4965479;28;20202;-72
2021/03/20 06:14:51;;;;;;;14.10;4.28;;;;;;;-142.13;100.00;58370.81;4968861;28;20696;-70
2021/03/20 06:17:36;;;;;;;7.20;4.60;;;;;;;-142.13;100.00;58370.81;4953645;28;20213;-70
2021/03/20 06:20:32;;;;;;;7.85;4.78;;;;;;;-142.13;100.00;58370.81;4960135;28;20726;-72
2021/03/20 06:23:14;;;;;;;9.82;4.60;;;;;;;-142.13;100.00;58370.81;4962873;28;20562;-72
2021/03/20 06:25:57;;;;;;;6.93;4.07;;;;;;;-142.13;100.00;58370.81;4966789;28;20755;-73
2021/03/20 06:28:30;;;;;;;13.45;4.80;;;;;;;-142.13;100.00;58370.81;4971607;28;20673;-71
2021/03/20 06:31:05;;;;;;;5.82;4.15;;;;;;;-142.13;100.00;58370.81;4968867;28;20584;-72
2021/03/20 06:33:42;;;;;;;9.70;4.05;;;;;;;-142.13;100.00;58370.81;4964971;28;20229;-71
2021/03/20 06:36:16;;;;;;;10.02;4.32;;;;;;;-142.13;100.00;58370.81;4971950;28;20573;-72
2021/03/20 06:38:46;;;;;;;20.73;5.40;;;;;;;-142.13;100.00;58370.81;4963771;28;20227;-71
2021/03/20 06:41:23;;;;;;;6.03;4.15;;;;;;;-142.13;100.00;58370.81;4965459;28;20202;-72
2021/03/20 06:43:54;;;;;;;7.28;3.78;;;;;;;-142.13;100.00;58370.81;4963681;28;20703;-72
2021/03/20 06:46:29;;;;;;;5.88;3.80;;;;;;;-142.13;100.00;58370.81;4964035;28;20531;-72
2021/03/20 06:48:58;;;;;;;7.00;3.85;;;;;;;-142.13;100.00;58370.81;4968878;28;20536;-72
2021/03/20 06:51:25;;;;;;;6.28;3.78;;;;;;;-142.13;100.00;58370.81;4972964;28;20217;-73
2021/03/20 06:53:57;;;;;;;6.07;3.78;;;;;;;-142.13;100.00;58370.81;4963725;28;20218;-71
2021/03/20 06:56:25;;;;;;;64.90;27.63;;;;;;;-142.13;100.00;58370.81;4962847;28;20622;-73
2021/03/20 06:58:52;;;;;;;68.85;29.88;;;;;;;-142.13;100.00;58370.81;4974719;28;20591;-73
2021/03/20 07:01:32;;;;;;;7.57;3.53;;;;;;;-142.13;100.00;58370.81;4979317;28;20608;-73
2021/03/20 07:04:19;;;;;;;6.93;3.85;;;;;;;-142.13;100.00;58370.81;4972139;28;20325;-72
2021/03/20 07:07:13;;;;;;;4.10;2.85;;;;;;;-142.13;100.00;58370.81;4975055;28;20241;-76
2021/03/20 07:09:47;;;;;;;6.85;3.10;;;;;;;-142.13;100.00;58370.81;4984062;28;20208;-74
2021/03/20 07:12:16;;;;;;;9.05;3.42;;;;;;;-142.13;100.00;58370.81;4980447;28;20650;-73
2021/03/20 07:14:45;;;;;;;6.57;2.90;;;;;;;-142.13;100.00;58370.81;4986023;28;20182;-74
2021/03/20 07:17:32;;;;;;;10.48;3.35;;;;;;;-142.13;100.00;58370.81;4986610;28;20712;-75
2021/03/20 07:20:05;;;;;;;4.32;3.05;;;;;;;-142.13;100.00;58370.81;4992672;28;20597;-75
2021/03/20 07:22:36;;;;;;;3.88;2.88;;;;;;;-142.13;100.00;58370.81;4991107;28;20498;-74
2021/03/20 07:25:23;;;;;;;8.95;4.75;;;;;;;-142.13;100.00;58370.81;4981981;28;20199;-73
2021/03/20 07:27:52;;;;;;;5.18;2.60;;;;;;;-142.13;100.00;58370.81;4989610;28;20661;-76
2021/03/20 07:30:34;;;;;;;4.63;3.17;;;;;;;-142.13;100.00;58370.81;4991658;28;20669;-74
2021/03/20 07:33:17;;;;;;;6.28;3.60;;;;;;;-142.13;100.00;58370.81;4984868;28;20217;-74
2021/03/20 07:35:44;;;;;;;6.75;2.83;;;;;;;-142.13;100.00;58370.81;4990251;28;20516;-76
2021/03/20 07:38:22;;;;;;;8.75;3.97;;;;;;;-142.13;100.00;58370.81;4988185;28;20216;-75
2021/03/20 07:41:03;;;;;;;6.50;3.30;;;;;;;-142.13;100.00;58370.81;4982258;28;20619;-75
2021/03/20 07:43:30;;;;;;;8.98;3.85;;;;;;;-142.13;100.00;58370.81;4982577;28;20600;-75
2021/03/20 07:46:07;;;;;;;110.85;44.08;;;;;;;-142.13;100.00;58370.81;4989698;28;20508;-73
2021/03/20 07:48:36;;;;;;;9.48;4.78;;;;;;;-142.13;100.00;58370.81;4982307;28;20533;-75
2021/03/20 07:51:07;;;;;;;8.10;3.85;;;;;;;-142.13;100.00;58370.81;4987760;28;20287;-73
2021/03/20 07:53:45;;;;;;;4.35;3.10;;;;;;;-142.13;100.00;58370.81;4990096;28;20299;-73
2021/03/20 07:56:31;;;;;;;10.13;3.17;;;;;;;-142.13;100.00;58370.81;4990079;28;20197;-74
2021/03/20 07:59:11;;;;;;;4.65;3.28;;;;;;;-142.13;100.00;58370.81;4969522;28;20241;-75
2021/03/20 08:01:40;;;;;;;7.65;4.30;;;;;;;-142.13;100.00;58370.81;4985176;28;20594;-74
2021/03/20 08:04:11;;;;;;;5.43;3.42;;;;;;;-142.13;100.00;58370.81;4984650;28;20202;-75
2021/03/20 08:06:45;;;;;;;8.20;3.85;;;;;;;-142.13;100.00;58370.81;4986829;28;20760;-74
2021/03/20 08:09:24;;;;;;;5.63;3.13;;;;;;;-142.13;100.00;58370.81;4984433;28;20574;-75
2021/03/20 08:12:07;;;;;;;5.18;3.40;;;;;;;-142.13;100.00;58370.81;4990472;28;20248;-74
2021/03/20 08:14:50;;;;;;;5.85;3.65;;;;;;;-142.13;100.00;58370.81;4991678;28;20187;-76
2021/03/20 08:17:19;;;;;;;3.83;2.95;;;;;;;-142.13;100.00;58370.81;4985941;28;20307;-75
2021/03/20 08:19:49;;;;;;;4.30;2.70;;;;;;;-142.13;100.00;58370.81;4987913;28;20186;-75
2021/03/20 08:22:48;;;;;;;7.75;2.50;;;;;;;-142.13;100.00;58370.81;4984440;28;20648;-76
2021/03/20 08:25:29;;;;;;;6.65;3.00;;;;;;;-142.13;100.00;58370.81;4958914;28;20551;-74
2021/03/20 08:28:13;;;;;;;6.63;2.90;;;;;;;-142.13;100.00;58370.81;4990364;28;20241;-75
2021/03/20 08:30:55;;;;;;;4.03;3.00;;;;;;;-142.13;100.00;58370.81;4991178;28;20663;-73
2021/03/20 08:33:59;;;;;;;6.20;2.92;;;;;;;-142.13;100.00;58370.81;4980589;28;20620;-76
2021/03/20 08:36:44;;;;;;;6.47;2.38;;;;;;;-142.13;100.00;58370.81;4988986;28;20211;-74
2021/03/20 08:39:24;;;;;;;3.80;2.50;;;;;;;-142.13;100.00;58370.81;4980753;28;20209;-74
2021/03/20 08:42:08;;;;;;;3.70;2.70;;;;;;;-142.13;100.00;58370.81;4990236;28;20961;-74
2021/03/20 08:44:53;;;;;;;5.30;2.00;;;;;;;-142.13;100.00;58370.81;4989571;28;20870;-74
2021/03/20 08:47:52;;;;;;;5.93;1.83;;;;;;;-142.13;100.00;58370.81;4981350;28;20613;-73
2021/03/20 08:50:30;;;;;;;3.70;2.13;;;;;;;-142.13;100.00;58370.81;4963496;28;20794;-75
2021/03/20 08:53:07;;;;;;;3.27;2.30;;;;;;;-142.13;100.00;58370.81;4972855;28;20951;-74
2021/03/20 08:56:03;;;;;;;5.40;2.73;;;;;;;-142.13;100.00;58370.81;4992717;28;20744;-73
2021/03/20 08:58:42;;;;;;;5.97;2.67;;;;;;;-142.13;100.00;58370.81;4981882;28;20527;-73
2021/03/20 09:01:23;;;;;;;3.35;2.00;;;;;;;-142.13;100.00;58370.81;4967551;28;20472;-74
2021/03/20 09:03:53;;;;;;;3.80;2.80;;;;;;;-142.13;100.00;58370.81;4982015;28;20259;-74
2021/03/20 09:06:30;;;;;;;3.97;2.05;;;;;;;-142.13;100.00;58370.81;4968511;28;20233;-74
2021/03/20 09:09:04;;;;;;;4.65;2.38;;;;;;;-142.13;100.00;58370.81;4986276;28;20766;-74
2021/03/20 09:11:40;;;;;;;3.60;2.37;;;;;;;-142.13;100.00;58370.81;4985201;28;20219;-75
2021/03/20 09:14:15;;;;;;;7.82;2.50;;;;;;;-142.13;100.00;58370.81;4980148;28;20456;-73
2021/03/20 09:16:47;;;;;;;4.93;1.45;;;;;;;-142.13;100.00;58370.81;4980870;28;20590;-75
2021/03/20 09:19:22;;;;;;;2.40;1.73;;;;;;;-142.13;100.00;58370.81;4988857;28;20196;-74
2021/03/20 09:21:50;;;;;;;4.18;1.20;;;;;;;-142.13;100.00;58370.81;4972486;28;20918;-73
2021/03/20 09:24:24;;;;;;;6.18;1.60;;;;;;;-142.13;100.00;58370.81;4981191;28;20588;-75
2021/03/20 09:26:53;;;;;;;2.95;1.55;;;;;;;-142.13;100.00;58370.81;4980991;28;20636;-73
2021/03/20 09:29:24;;;;;;;4.78;1.90;;;;;;;-142.13;100.00;58370.81;4983415;28;20271;-74
2021/03/20 09:32:08;;;;;;;6.53;1.63;;;;;;;-142.13;100.00;58370.81;4986951;28;20189;-74
2021/03/20 09:34:50;;;;;;;2.50;1.90;;;;;;;-142.13;100.00;58370.81;4991140;28;20796;-74
2021/03/20 09:37:47;;;;;;;3.47;1.60;;;;;;;-142.13;100.00;58370.81;4990236;28;20259;-74
2021/03/20 09:40:40;;;;;;;2.92;1.70;;;;;;;-142.13;100.00;58370.81;4989799;28;20518;-73
2021/03/20 09:43:24;;;;;;;3.42;1.75;;;;;;;-142.13;100.00;58370.81;4989497;28;20532;-73
2021/03/20 09:46:47;;;;;;;3.92;1.75;;;;;;;-142.13;100.00;58370.81;4984211;28;20189;-73
2021/03/20 09:49:54;;;;;;;2.43;1.57;;;;;;;-142.13;100.00;58370.81;4987748;28;20817;-73
2021/03/20 09:52:35;;;;;;;5.70;2.00;;;;;;;-142.13;100.00;58370.81;4983710;28;20464;-73
2021/03/20 09:55:48;;;;;;;2.10;1.73;;;;;;;-142.13;100.00;58370.81;4984640;28;20513;-72
2021/03/20 09:58:39;;;;;;;3.17;2.07;;;;;;;-142.13;100.00;58370.81;4983808;28;20742;-72
2021/03/20 10:01:19;;;;;;;2.60;1.40;;;;;;;-142.13;100.00;58370.81;4987171;28;20942;-72
2021/03/20 10:04:21;;;;;;;3.03;1.40;;;;;;;-142.13;100.00;58370.81;4984051;28;20498;-71
2021/03/20 10:07:26;;;;;;;3.00;1.50;;;;;;;-142.13;100.00;58370.81;4983366;28;20471;-73
2021/03/20 10:09:57;;;;;;;2.70;1.43;;;;;;;-142.13;100.00;58370.81;4965563;28;20433;-72
2021/03/20 10:12:30;;;;;;;3.73;1.53;;;;;;;-142.13;100.00;58370.81;4994149;28;20826;-72
2021/03/20 10:15:24;;;;;;;3.67;1.93;;;;;;;-142.13;100.00;58370.81;4994142;28;20914;-73
2021/03/20 10:18:20;;;;;;;3.67;1.67;;;;;;;-142.13;100.00;58370.81;4988949;28;20452;-73
2021/03/20 10:21:07;;;;;;;3.90;1.80;;;;;;;-142.13;100.00;58370.81;4989679;28;20440;-72
2021/03/20 10:23:43;;;;;;;2.67;2.20;;;;;;;-142.13;100.00;58370.81;4991672;28;20472;-72
2021/03/20 10:26:36;;;;;;;3.33;1.70;;;;;;;-142.13;100.00;58370.81;4982329;28;20926;-73
2021/03/20 10:29:07;;;;;;;2.93;1.90;;;;;;;-142.13;100.00;58370.81;4981276;28;20461;-72
2021/03/20 10:31:41;;;;;;;4.23;2.33;;;;;;;-142.13;100.00;58370.81;4969009;28;20447;-72
2021/03/20 10:34:11;;;;;;;1.87;1.40;;;;;;;-142.13;100.00;58370.81;4981356;28;20789;-73
2021/03/20 10:36:41;;;;;;;4.20;2.27;;;;;;;-142.13;100.00;58370.81;4990700;28;20479;-74
2021/03/20 10:39:27;;;;;;;4.30;2.20;;;;;;;-142.13;100.00;58370.81;4971362;28;21068;-74
2021/03/20 10:41:58;;;;;;;2.23;1.50;;;;;;;-142.13;100.00;58370.81;4990157;28;20455;-74
2021/03/20 10:44:29;;;;;;;2.23;1.60;;;;;;;-142.13;100.00;58370.81;4984126;28;21175;-74
2021/03/20 10:47:21;;;;;;;3.15;1.63;;;;;;;-142.13;100.00;58370.81;4987229;28;21002;-73
2021/03/20 10:49:53;;;;;;;2.23;1.30;;;;;;;-142.13;100.00;58370.81;4974921;28;20250;-73
2021/03/20 10:52:25;;;;;;;6.70;2.00;;;;;;;-142.13;100.00;58370.81;4984111;28;20555;-72
2021/03/20 10:54:54;;;;;;;1.70;1.40;;;;;;;-142.13;100.00;58370.81;4985801;28;20903;-73
2021/03/20 10:57:25;;;;;;;3.80;1.90;;;;;;;-142.13;100.00;58370.81;4988892;28;20764;-73
2021/03/20 10:59:53;;;;;;;2.70;2.00;;;;;;;-142.13;100.00;58370.81;4992448;28;20902;-71
2021/03/20 11:02:33;;;;;;;4.57;2.10;;;;;;;-142.13;100.00;58370.81;4983959;28;20457;-73
2021/03/20 11:05:30;;;;;;;2.97;1.53;;;;;;;-142.13;100.00;58370.81;4989388;28;21334;-71
2021/03/20 11:08:20;;;;;;;2.23;1.30;;;;;;;-142.13;100.00;58370.81;4967447;28;20463;-72
2021/03/20 11:10:55;;;;;;;5.60;1.77;;;;;;;-142.13;100.00;58370.81;4973428;28;20440;-72
2021/03/20 11:13:33;;;;;;;3.37;1.60;;;;;;;-142.13;100.00;58370.81;4985070;28;20476;-72
2021/03/20 11:16:06;;;;;;;1.60;1.50;;;;;;;-142.13;100.00;58370.81;4985092;28;20821;-72
2021/03/20 11:18:39;;;;;;;3.73;1.70;;;;;;;-142.13;100.00;58370.81;4991080;28;20551;-73
2021/03/20 11:21:15;;;;;;;3.43;1.93;;;;;;;-142.13;100.00;58370.81;4982183;28;20473;-71
2021/03/20 11:23:42;;;;;;;4.20;1.67;;;;;;;-142.13;100.00;58370.81;4985165;28;20951;-71
2021/03/20 11:26:11;;;;;;;5.50;1.80;;;;;;;-142.13;100.00;58370.81;4993051;28;20839;-72
2021/03/20 11:28:39;;;;;;;2.47;1.40;;;;;;;-142.13;100.00;58370.81;4967762;28;20806;-72
2021/03/20 11:31:07;;;;;;;5.60;1.97;;;;;;;-142.13;100.00;58370.81;4982242;28;20827;-73
2021/03/20 11:33:39;;;;;;;2.47;1.60;;;;;;;-142.13;100.00;58370.81;4983207;28;20857;-71
2021/03/20 11:36:11;;;;;;;4.40;1.70;;;;;;;-142.13;100.00;58370.81;4982376;28;20800;-73
2021/03/20 11:38:38;;;;;;;5.60;2.23;;;;;;;-142.13;100.00;58370.81;4986121;28;20479;-73
2021/03/20 11:41:27;;;;;;;45.90;22.67;;;;;;;-142.13;100.00;58370.81;4980973;28;20809;-72
2021/03/20 11:44:02;;;;;;;5.83;2.50;;;;;;;-142.13;100.00;58370.81;4985446;28;20989;-72
2021/03/20 11:46:33;;;;;;;3.67;2.20;;;;;;;-142.13;100.00;58370.81;4981910;28;20520;-73